createdAt,value
2022-10-08T01:05:47.401Z,66.30
2022-10-08T01:11:04.644Z,65.59
2022-10-08T01:16:22.273Z,65.07
2022-10-08T01:21:43.435Z,65.48
2022-10-08T01:27:01.072Z,64.77
2022-10-08T01:32:16.859Z,64.47
2022-10-08T01:37:30.011Z,64.74
2022-10-08T01:42:40.052Z,64.82
2022-10-08T01:47:52.389Z,65.12
2022-10-08T01:53:04.678Z,65.08
2022-10-08T01:58:17.274Z,65.22
2022-10-08T02:03:27.387Z,65.03
2022-10-08T02:08:34.972Z,64.82
2022-10-08T02:13:43.264Z,64.74
2022-10-08T02:19:01.149Z,64.86
2022-10-08T02:24:15.944Z,65.19
2022-10-08T02:29:30.518Z,64.66
2022-10-08T02:34:45.557Z,64.85
2022-10-08T02:40:00.624Z,64.58
2022-10-08T02:45:13.051Z,64.29
2022-10-08T02:50:27.619Z,64.50
2022-10-08T02:55:47.270Z,65.20
2022-10-08T03:01:00.186Z,64.90
2022-10-08T03:06:13.669Z,64.68
2022-10-08T03:11:21.194Z,64.83
2022-10-08T03:16:35.005Z,64.54
2022-10-08T03:21:47.545Z,64.52
2022-10-08T03:26:55.221Z,64.77
2022-10-08T03:32:02.736Z,64.37
2022-10-08T03:37:12.815Z,64.59
2022-10-08T03:42:20.334Z,64.44
2022-10-08T03:47:27.938Z,64.39
2022-10-08T03:52:38.072Z,64.71
2022-10-08T03:57:45.566Z,64.50
2022-10-08T04:02:53.258Z,64.69
2022-10-08T04:08:03.381Z,64.44
2022-10-08T04:13:11.046Z,64.21
2022-10-08T04:18:18.894Z,64.32
2022-10-08T04:23:29.113Z,64.79
2022-10-08T04:28:39.291Z,64.61
2022-10-08T04:33:47.879Z,64.61
2022-10-08T04:38:57.966Z,64.59
2022-10-08T04:44:05.460Z,64.59
2022-10-08T04:49:14.282Z,64.56
2022-10-08T04:54:24.591Z,64.53
2022-10-08T04:59:32.093Z,64.57
2022-10-08T05:04:39.593Z,64.45
2022-10-08T05:09:49.667Z,65.12
2022-10-08T05:14:57.159Z,64.72
2022-10-08T05:20:05.123Z,65.10
2022-10-08T05:25:15.400Z,64.93
2022-10-08T05:30:22.954Z,64.66
2022-10-08T05:35:30.526Z,64.83
2022-10-08T05:40:40.607Z,64.79
2022-10-08T05:45:52.950Z,64.80
2022-10-08T05:51:05.886Z,64.74
2022-10-08T05:56:18.020Z,65.16
2022-10-08T06:01:28.093Z,64.95
2022-10-08T06:06:37.990Z,64.70
2022-10-08T06:11:48.417Z,64.49
2022-10-08T06:16:55.902Z,64.31
2022-10-08T06:22:03.386Z,64.85
2022-10-08T06:27:13.464Z,64.95
2022-10-08T06:32:21.518Z,64.54
2022-10-08T06:37:29.028Z,64.41
2022-10-08T06:42:39.132Z,64.81
2022-10-08T06:47:46.648Z,64.81
2022-10-08T06:52:54.145Z,64.95
2022-10-08T06:58:06.200Z,65.16
2022-10-08T07:03:13.881Z,65.62
2022-10-08T07:08:21.408Z,66.13
2022-10-08T07:13:31.586Z,66.13
2022-10-08T07:18:40.546Z,66.19
2022-10-08T07:23:48.662Z,66.38
2022-10-08T07:29:02.816Z,66.64
2022-10-08T07:34:13.662Z,66.66
2022-10-08T07:39:21.599Z,66.43
2022-10-08T07:44:31.679Z,66.56
2022-10-08T07:49:39.164Z,66.44
2022-10-08T07:54:46.781Z,66.53
2022-10-08T07:59:56.897Z,66.16
2022-10-08T08:05:04.468Z,65.87
2022-10-08T08:10:12.274Z,65.86
2022-10-08T08:15:22.438Z,65.28
2022-10-08T08:20:29.929Z,64.81
2022-10-08T08:25:37.418Z,65.20
2022-10-08T08:30:47.522Z,65.08
2022-10-08T08:35:55.791Z,64.49
2022-10-08T08:41:13.565Z,64.71
2022-10-08T08:46:25.282Z,64.59
2022-10-08T08:51:34.661Z,64.28
2022-10-08T08:56:42.398Z,64.46
2022-10-08T09:01:54.259Z,63.88
2022-10-08T09:07:04.098Z,63.23
2022-10-08T09:12:21.038Z,62.68
2022-10-08T09:17:36.199Z,63.06
2022-10-08T09:22:45.700Z,62.65
2022-10-08T09:27:56.540Z,62.91
2022-10-08T09:33:19.106Z,62.76
2022-10-08T09:38:28.956Z,62.39
2022-10-08T09:43:38.029Z,62.23
2022-10-08T09:48:48.197Z,61.39
2022-10-08T09:54:01.307Z,61.30
2022-10-08T09:59:10.111Z,61.47
2022-10-08T10:04:32.534Z,60.46
2022-10-08T10:09:47.275Z,60.05
2022-10-08T10:15:00.305Z,61.12
2022-10-08T10:20:20.195Z,60.55
2022-10-08T10:25:37.515Z,59.94
2022-10-08T10:30:52.452Z,59.97
2022-10-08T10:36:07.469Z,60.25
2022-10-08T10:41:24.564Z,59.63
2022-10-08T10:46:37.140Z,60.20
2022-10-08T10:52:00.451Z,59.27
2022-10-08T10:57:14.657Z,59.42
2022-10-08T11:02:29.856Z,59.05
2022-10-08T11:08:04.594Z,59.37
2022-10-08T11:13:23.607Z,58.81
2022-10-08T11:18:38.975Z,58.85
2022-10-08T11:24:18.890Z,56.41
2022-10-08T11:29:32.307Z,58.85
2022-10-08T11:34:40.825Z,58.42
2022-10-08T11:40:01.732Z,57.42
2022-10-08T11:50:47.000Z,58.84
2022-10-08T11:56:00.813Z,58.22
2022-10-08T12:01:10.648Z,57.71
2022-10-08T12:06:21.399Z,57.80
2022-10-08T12:11:58.867Z,58.11
2022-10-08T12:17:13.744Z,57.46
2022-10-08T12:22:46.073Z,57.03
2022-10-08T12:28:32.400Z,57.52
2022-10-08T12:33:39.957Z,57.04
2022-10-08T12:38:53.935Z,56.86
2022-10-08T12:44:09.458Z,56.44
2022-10-08T12:49:24.562Z,56.09
2022-10-08T12:54:34.066Z,56.74
2022-10-08T12:59:46.570Z,56.67
2022-10-08T13:04:54.111Z,56.73
2022-10-08T13:10:03.696Z,56.51
2022-10-08T13:15:26.229Z,56.78
2022-10-08T13:20:33.783Z,56.50
2022-10-08T13:25:43.652Z,56.29
2022-10-08T13:30:58.683Z,55.40
2022-10-08T13:36:06.388Z,56.49
2022-10-08T13:41:23.936Z,55.96
2022-10-08T13:46:34.312Z,56.00
2022-10-08T13:51:43.102Z,55.81
2022-10-08T13:56:50.916Z,54.80
2022-10-08T14:02:01.133Z,55.74
2022-10-08T14:07:17.246Z,54.42
2022-10-08T14:12:30.183Z,55.33
2022-10-08T14:17:41.416Z,55.05
2022-10-08T14:22:48.932Z,54.79
2022-10-08T14:27:57.053Z,54.70
2022-10-08T14:33:11.137Z,55.01
2022-10-08T14:38:19.263Z,55.16
2022-10-08T14:43:27.812Z,55.38
2022-10-08T14:48:39.264Z,54.68
2022-10-08T14:53:46.841Z,54.90
2022-10-08T14:58:54.323Z,55.13
2022-10-08T15:04:04.513Z,54.90
2022-10-08T15:09:13.274Z,55.04
2022-10-08T15:14:20.760Z,54.91
2022-10-08T15:19:30.917Z,55.49
2022-10-08T15:24:38.448Z,55.45
2022-10-08T15:29:45.969Z,55.46
2022-10-08T15:34:56.255Z,54.73
2022-10-08T15:40:03.784Z,55.35
2022-10-08T15:45:11.863Z,55.71
2022-10-08T15:50:22.087Z,55.22
2022-10-08T15:55:29.669Z,55.42
2022-10-08T16:00:38.216Z,55.40
2022-10-08T16:05:48.428Z,55.64
2022-10-08T16:10:58.157Z,55.65
2022-10-08T16:16:05.981Z,55.44
2022-10-08T16:21:16.767Z,55.64
2022-10-08T16:26:25.029Z,55.65
2022-10-08T16:31:34.057Z,55.47
2022-10-08T16:36:44.499Z,55.79
2022-10-08T16:41:52.876Z,55.89
2022-10-08T16:47:00.455Z,56.22
2022-10-08T16:52:11.611Z,55.86
2022-10-08T16:57:20.392Z,55.54
2022-10-08T17:02:27.932Z,55.95
2022-10-08T17:07:38.062Z,56.26
2022-10-08T17:12:45.718Z,56.17
2022-10-08T17:17:55.643Z,56.79
2022-10-08T17:23:06.223Z,56.62
2022-10-08T17:28:13.752Z,57.00
2022-10-08T17:33:21.310Z,56.75
2022-10-08T17:38:31.516Z,57.05
2022-10-08T17:43:39.013Z,56.78
2022-10-08T17:48:47.153Z,56.89
2022-10-08T17:53:58.462Z,57.04
2022-10-08T17:59:06.872Z,57.39
2022-10-08T18:04:16.625Z,57.58
2022-10-08T18:09:26.778Z,57.35
2022-10-08T18:14:34.453Z,56.88
2022-10-08T18:19:42.090Z,57.11
2022-10-08T18:24:52.355Z,57.65
2022-10-08T18:29:59.898Z,57.71
2022-10-08T18:35:08.110Z,58.13
2022-10-08T18:40:18.456Z,57.25
2022-10-08T18:45:26.244Z,57.08
2022-10-08T18:50:33.733Z,57.75
2022-10-08T18:55:51.070Z,57.86
2022-10-08T19:00:59.208Z,57.79
2022-10-08T19:06:09.708Z,58.72
2022-10-08T19:11:22.176Z,58.52
2022-10-08T19:16:29.806Z,58.76
2022-10-08T19:21:38.840Z,59.17
2022-10-08T19:26:50.159Z,59.57
2022-10-08T19:31:58.609Z,59.08
2022-10-08T19:37:06.094Z,59.27
2022-10-08T19:42:16.423Z,58.98
2022-10-08T19:52:36.874Z,59.36
2022-10-08T19:57:47.594Z,60.04
2022-10-08T20:02:55.107Z,59.38
2022-10-08T20:08:02.606Z,59.33
2022-10-08T20:13:12.752Z,59.57
2022-10-08T20:18:20.309Z,59.30
2022-10-08T20:23:27.840Z,59.64
2022-10-08T20:28:38.280Z,60.03
2022-10-08T20:33:46.962Z,59.96
2022-10-08T20:38:55.051Z,59.90
2022-10-08T20:44:06.799Z,59.73
2022-10-08T20:49:16.066Z,59.69
2022-10-08T20:54:23.582Z,59.82
2022-10-08T20:59:34.055Z,60.03
2022-10-08T21:04:41.826Z,59.56
2022-10-08T21:09:52.834Z,59.56
2022-10-08T21:15:02.746Z,59.18
2022-10-08T21:20:11.906Z,59.65
2022-10-08T21:25:19.419Z,59.73
2022-10-08T21:30:29.519Z,59.91
2022-10-08T21:35:39.041Z,60.24
2022-10-08T21:40:46.571Z,60.61
2022-10-08T21:46:02.438Z,60.51
2022-10-08T21:51:11.914Z,60.82
2022-10-08T21:56:22.302Z,60.84
2022-10-08T22:01:34.794Z,60.70
2022-10-08T22:06:45.054Z,60.78
2022-10-08T22:11:53.529Z,60.45
2022-10-08T22:17:03.886Z,60.61
2022-10-08T22:22:11.446Z,60.76
2022-10-08T22:27:18.960Z,60.57
2022-10-08T22:32:29.087Z,60.27
2022-10-08T22:37:36.656Z,60.17
2022-10-08T22:42:44.190Z,60.40
2022-10-08T22:47:54.559Z,60.29
2022-10-08T22:53:02.082Z,60.20
2022-10-08T22:58:09.559Z,60.58
2022-10-08T23:03:19.712Z,60.86
2022-10-08T23:08:27.308Z,60.68
2022-10-08T23:13:35.603Z,60.26
2022-10-08T23:18:47.385Z,59.90
2022-10-08T23:23:56.245Z,60.14
2022-10-08T23:29:04.619Z,60.32
2022-10-08T23:34:14.697Z,60.89
2022-10-08T23:39:22.208Z,60.45
2022-10-08T23:44:29.749Z,60.52
2022-10-08T23:49:39.829Z,60.57
2022-10-08T23:54:47.340Z,60.56
2022-10-08T23:59:54.864Z,60.55
